sensor_id;sensor_type;location;lat;lon;timestamp;pressure;altitude;pressure_sealevel;temperature;humidity
72210;BME280;60113;48.762;12.302;2024-02-23T00:01:26;95142.44;;;6.95;100.00
72210;BME280;60113;48.762;12.302;2024-02-23T00:03:51;95146.00;;;6.94;100.00
72210;BME280;60113;48.762;12.302;2024-02-23T00:06:18;95176.38;;;6.95;100.00
72210;BME280;60113;48.762;12.302;2024-02-23T00:08:45;95194.50;;;6.97;100.00
72210;BME280;60113;48.762;12.302;2024-02-23T00:11:11;95177.84;;;6.98;100.00
72210;BME280;60113;48.762;12.302;2024-02-23T00:13:36;95179.41;;;6.91;100.00
72210;BME280;60113;48.762;12.302;2024-02-23T00:16:02;95175.81;;;6.92;100.00
72210;BME280;60113;48.762;12.302;2024-02-23T00:18:28;95184.19;;;6.95;100.00
72210;BME280;60113;48.762;12.302;2024-02-23T00:20:53;95142.13;;;6.98;100.00
72210;BME280;60113;48.762;12.302;2024-02-23T00:23:19;95183.19;;;7.06;100.00
72210;BME280;60113;48.762;12.302;2024-02-23T00:25:44;95180.44;;;7.08;100.00
72210;BME280;60113;48.762;12.302;2024-02-23T00:28:10;95188.94;;;7.10;100.00
72210;BME280;60113;48.762;12.302;2024-02-23T00:30:36;95198.56;;;7.09;100.00
72210;BME280;60113;48.762;12.302;2024-02-23T00:33:01;95202.94;;;7.09;100.00
72210;BME280;60113;48.762;12.302;2024-02-23T00:35:26;95188.41;;;7.06;100.00
72210;BME280;60113;48.762;12.302;2024-02-23T00:37:52;95176.47;;;7.04;100.00
72210;BME280;60113;48.762;12.302;2024-02-23T00:40:18;95164.50;;;7.01;100.00
72210;BME280;60113;48.762;12.302;2024-02-23T00:42:43;95175.94;;;7.00;100.00
72210;BME280;60113;48.762;12.302;2024-02-23T00:45:08;95178.00;;;6.96;100.00
72210;BME280;60113;48.762;12.302;2024-02-23T00:47:34;95175.53;;;6.95;100.00
72210;BME280;60113;48.762;12.302;2024-02-23T00:50:01;95189.72;;;6.92;100.00
72210;BME280;60113;48.762;12.302;2024-02-23T00:52:27;95195.91;;;6.91;100.00
72210;BME280;60113;48.762;12.302;2024-02-23T00:54:52;95208.13;;;6.91;100.00
72210;BME280;60113;48.762;12.302;2024-02-23T00:57:18;95222.16;;;6.90;100.00
72210;BME280;60113;48.762;12.302;2024-02-23T00:59:48;95232.59;;;6.90;100.00
72210;BME280;60113;48.762;12.302;2024-02-23T01:02:15;95224.63;;;6.91;100.00
72210;BME280;60113;48.762;12.302;2024-02-23T01:04:41;95223.38;;;6.95;100.00
72210;BME280;60113;48.762;12.302;2024-02-23T01:07:06;95228.31;;;6.98;100.00
72210;BME280;60113;48.762;12.302;2024-02-23T01:09:32;95229.78;;;7.01;100.00
72210;BME280;60113;48.762;12.302;2024-02-23T01:11:57;95240.09;;;7.03;100.00
72210;BME280;60113;48.762;12.302;2024-02-23T01:14:22;95231.16;;;7.05;100.00
72210;BME280;60113;48.762;12.302;2024-02-23T01:16:48;95244.09;;;7.07;100.00
72210;BME280;60113;48.762;12.302;2024-02-23T01:19:14;95238.03;;;7.06;100.00
72210;BME280;60113;48.762;12.302;2024-02-23T01:21:41;95243.94;;;7.08;100.00
72210;BME280;60113;48.762;12.302;2024-02-23T01:24:06;95239.00;;;7.05;100.00
72210;BME280;60113;48.762;12.302;2024-02-23T01:26:31;95249.75;;;7.02;100.00
72210;BME280;60113;48.762;12.302;2024-02-23T01:28:57;95243.97;;;6.98;100.00
72210;BME280;60113;48.762;12.302;2024-02-23T01:31:22;95240.00;;;6.94;100.00
72210;BME280;60113;48.762;12.302;2024-02-23T01:33:48;95251.81;;;6.88;100.00
72210;BME280;60113;48.762;12.302;2024-02-23T01:36:15;95250.47;;;6.84;100.00
72210;BME280;60113;48.762;12.302;2024-02-23T01:38:40;95251.75;;;6.80;100.00
72210;BME280;60113;48.762;12.302;2024-02-23T01:41:08;95252.16;;;6.75;100.00
72210;BME280;60113;48.762;12.302;2024-02-23T01:43:33;95248.19;;;6.71;100.00
72210;BME280;60113;48.762;12.302;2024-02-23T01:45:59;95257.13;;;6.69;100.00
72210;BME280;60113;48.762;12.302;2024-02-23T01:48:25;95248.78;;;6.65;100.00
72210;BME280;60113;48.762;12.302;2024-02-23T01:50:51;95254.41;;;6.60;100.00
72210;BME280;60113;48.762;12.302;2024-02-23T01:53:17;95258.38;;;6.55;100.00
72210;BME280;60113;48.762;12.302;2024-02-23T01:55:45;95258.81;;;6.50;100.00
72210;BME280;60113;48.762;12.302;2024-02-23T01:58:12;95261.84;;;6.45;100.00
72210;BME280;60113;48.762;12.302;2024-02-23T02:00:38;95272.56;;;6.42;100.00
72210;BME280;60113;48.762;12.302;2024-02-23T02:03:04;95276.41;;;6.38;100.00
72210;BME280;60113;48.762;12.302;2024-02-23T02:05:30;95293.97;;;6.36;100.00
72210;BME280;60113;48.762;12.302;2024-02-23T02:07:56;95298.53;;;6.34;100.00
72210;BME280;60113;48.762;12.302;2024-02-23T02:10:25;95303.06;;;6.32;100.00
72210;BME280;60113;48.762;12.302;2024-02-23T02:12:52;95300.72;;;6.29;100.00
72210;BME280;60113;48.762;12.302;2024-02-23T02:15:18;95315.53;;;6.28;100.00
72210;BME280;60113;48.762;12.302;2024-02-23T02:17:44;95312.28;;;6.26;100.00
72210;BME280;60113;48.762;12.302;2024-02-23T02:20:11;95346.31;;;6.24;100.00
72210;BME280;60113;48.762;12.302;2024-02-23T02:22:37;95374.69;;;6.08;100.00
72210;BME280;60113;48.762;12.302;2024-02-23T02:25:03;95388.59;;;5.77;100.00
72210;BME280;60113;48.762;12.302;2024-02-23T02:27:29;95396.81;;;5.41;100.00
72210;BME280;60113;48.762;12.302;2024-02-23T02:29:56;95422.53;;;5.03;100.00
72210;BME280;60113;48.762;12.302;2024-02-23T02:32:23;95431.22;;;4.71;100.00
72210;BME280;60113;48.762;12.302;2024-02-23T02:34:48;95430.63;;;4.46;100.00
72210;BME280;60113;48.762;12.302;2024-02-23T02:37:15;95434.56;;;4.29;100.00
72210;BME280;60113;48.762;12.302;2024-02-23T02:39:40;95434.72;;;4.16;100.00
72210;BME280;60113;48.762;12.302;2024-02-23T02:42:07;95435.56;;;4.05;100.00
72210;BME280;60113;48.762;12.302;2024-02-23T02:44:33;95435.34;;;3.96;100.00
72210;BME280;60113;48.762;12.302;2024-02-23T02:46:58;95433.25;;;3.90;100.00
72210;BME280;60113;48.762;12.302;2024-02-23T02:49:24;95432.66;;;3.86;100.00
72210;BME280;60113;48.762;12.302;2024-02-23T02:51:50;95441.41;;;3.85;100.00
72210;BME280;60113;48.762;12.302;2024-02-23T02:54:15;95447.78;;;3.81;100.00
72210;BME280;60113;48.762;12.302;2024-02-23T02:56:44;95454.88;;;3.79;100.00
72210;BME280;60113;48.762;12.302;2024-02-23T02:59:11;95451.53;;;3.77;100.00
72210;BME280;60113;48.762;12.302;2024-02-23T03:01:37;95434.56;;;3.73;100.00
72210;BME280;60113;48.762;12.302;2024-02-23T03:04:02;95446.72;;;3.72;100.00
72210;BME280;60113;48.762;12.302;2024-02-23T03:06:28;95441.63;;;3.71;100.00
72210;BME280;60113;48.762;12.302;2024-02-23T03:08:53;95442.34;;;3.73;100.00
72210;BME280;60113;48.762;12.302;2024-02-23T03:11:18;95448.25;;;3.75;100.00
72210;BME280;60113;48.762;12.302;2024-02-23T03:13:44;95444.72;;;3.76;100.00
72210;BME280;60113;48.762;12.302;2024-02-23T03:16:21;95449.91;;;3.76;100.00
72210;BME280;60113;48.762;12.302;2024-02-23T03:18:49;95450.75;;;3.77;100.00
72210;BME280;60113;48.762;12.302;2024-02-23T03:21:14;95461.94;;;3.77;100.00
72210;BME280;60113;48.762;12.302;2024-02-23T03:23:40;95468.81;;;3.78;100.00
72210;BME280;60113;48.762;12.302;2024-02-23T03:26:07;95461.94;;;3.77;100.00
72210;BME280;60113;48.762;12.302;2024-02-23T03:28:32;95467.00;;;3.79;100.00
72210;BME280;60113;48.762;12.302;2024-02-23T03:30:59;95463.59;;;3.78;100.00
72210;BME280;60113;48.762;12.302;2024-02-23T03:33:25;95470.56;;;3.78;100.00
72210;BME280;60113;48.762;12.302;2024-02-23T03:35:50;95465.50;;;3.76;100.00
72210;BME280;60113;48.762;12.302;2024-02-23T03:38:16;95478.59;;;3.74;100.00
72210;BME280;60113;48.762;12.302;2024-02-23T03:40:41;95472.69;;;3.72;100.00
72210;BME280;60113;48.762;12.302;2024-02-23T03:43:07;95476.25;;;3.71;100.00
72210;BME280;60113;48.762;12.302;2024-02-23T03:45:33;95470.44;;;3.68;100.00
72210;BME280;60113;48.762;12.302;2024-02-23T03:47:59;95475.88;;;3.65;100.00
72210;BME280;60113;48.762;12.302;2024-02-23T03:50:24;95474.34;;;3.62;100.00
72210;BME280;60113;48.762;12.302;2024-02-23T03:52:50;95469.50;;;3.57;100.00
72210;BME280;60113;48.762;12.302;2024-02-23T03:55:15;95474.94;;;3.54;100.00
72210;BME280;60113;48.762;12.302;2024-02-23T03:57:41;95476.91;;;3.50;100.00
72210;BME280;60113;48.762;12.302;2024-02-23T04:00:07;95471.97;;;3.47;100.00
72210;BME280;60113;48.762;12.302;2024-02-23T04:02:34;95468.69;;;3.45;100.00
72210;BME280;60113;48.762;12.302;2024-02-23T04:04:59;95468.91;;;3.42;100.00
72210;BME280;60113;48.762;12.302;2024-02-23T04:07:25;95469.03;;;3.41;100.00
72210;BME280;60113;48.762;12.302;2024-02-23T04:09:50;95471.84;;;3.37;100.00
72210;BME280;60113;48.762;12.302;2024-02-23T04:12:20;95462.38;;;3.36;100.00
72210;BME280;60113;48.762;12.302;2024-02-23T04:14:45;95465.09;;;3.35;100.00
72210;BME280;60113;48.762;12.302;2024-02-23T04:17:11;95454.97;;;3.32;100.00
72210;BME280;60113;48.762;12.302;2024-02-23T04:19:37;95455.09;;;3.30;100.00
72210;BME280;60113;48.762;12.302;2024-02-23T04:22:03;95466.41;;;3.29;100.00
72210;BME280;60113;48.762;12.302;2024-02-23T04:24:29;95469.09;;;3.28;100.00
72210;BME280;60113;48.762;12.302;2024-02-23T04:26:54;95470.91;;;3.27;100.00
72210;BME280;60113;48.762;12.302;2024-02-23T04:29:20;95472.66;;;3.27;100.00
72210;BME280;60113;48.762;12.302;2024-02-23T04:31:45;95487.28;;;3.28;100.00
72210;BME280;60113;48.762;12.302;2024-02-23T04:34:11;95475.25;;;3.27;100.00
72210;BME280;60113;48.762;12.302;2024-02-23T04:36:36;95478.69;;;3.27;100.00
72210;BME280;60113;48.762;12.302;2024-02-23T04:39:01;95488.22;;;3.27;100.00
72210;BME280;60113;48.762;12.302;2024-02-23T04:41:28;95476.09;;;3.27;100.00
72210;BME280;60113;48.762;12.302;2024-02-23T04:43:53;95490.72;;;3.28;100.00
72210;BME280;60113;48.762;12.302;2024-02-23T04:46:23;95487.28;;;3.28;100.00
72210;BME280;60113;48.762;12.302;2024-02-23T04:48:49;95486.47;;;3.27;100.00
72210;BME280;60113;48.762;12.302;2024-02-23T04:51:14;95492.47;;;3.28;100.00
72210;BME280;60113;48.762;12.302;2024-02-23T04:53:39;95507.25;;;3.27;100.00
72210;BME280;60113;48.762;12.302;2024-02-23T04:56:05;95502.97;;;3.26;100.00
72210;BME280;60113;48.762;12.302;2024-02-23T04:58:31;95509.00;;;3.27;100.00
72210;BME280;60113;48.762;12.302;2024-02-23T05:00:56;95502.97;;;3.26;100.00
72210;BME280;60113;48.762;12.302;2024-02-23T05:03:22;95505.69;;;3.24;100.00
72210;BME280;60113;48.762;12.302;2024-02-23T05:05:47;95504.88;;;3.24;100.00
72210;BME280;60113;48.762;12.302;2024-02-23T05:08:14;95505.78;;;3.23;100.00
72210;BME280;60113;48.762;12.302;2024-02-23T05:10:40;95498.25;;;3.20;100.00
72210;BME280;60113;48.762;12.302;2024-02-23T05:13:05;95493.28;;;3.17;100.00
72210;BME280;60113;48.762;12.302;2024-02-23T05:15:31;95492.47;;;3.16;100.00
72210;BME280;60113;48.762;12.302;2024-02-23T05:17:57;95498.59;;;3.15;100.00
72210;BME280;60113;48.762;12.302;2024-02-23T05:20:24;95499.53;;;3.14;100.00
72210;BME280;60113;48.762;12.302;2024-02-23T05:22:49;95495.41;;;3.11;100.00
72210;BME280;60113;48.762;12.302;2024-02-23T05:25:14;95494.78;;;3.08;100.00
72210;BME280;60113;48.762;12.302;2024-02-23T05:27:40;95503.66;;;3.05;100.00
72210;BME280;60113;48.762;12.302;2024-02-23T05:30:06;95502.09;;;3.03;100.00
72210;BME280;60113;48.762;12.302;2024-02-23T05:32:31;95504.91;;;2.99;100.00
72210;BME280;60113;48.762;12.302;2024-02-23T05:34:57;95507.63;;;2.98;100.00
72210;BME280;60113;48.762;12.302;2024-02-23T05:37:22;95506.91;;;2.96;100.00
72210;BME280;60113;48.762;12.302;2024-02-23T05:39:49;95502.75;;;2.93;100.00
72210;BME280;60113;48.762;12.302;2024-02-23T05:42:14;95495.09;;;2.92;100.00
72210;BME280;60113;48.762;12.302;2024-02-23T05:44:43;95500.38;;;2.90;100.00
72210;BME280;60113;48.762;12.302;2024-02-23T05:47:08;95509.13;;;2.89;100.00
72210;BME280;60113;48.762;12.302;2024-02-23T05:49:35;95504.78;;;2.90;100.00
72210;BME280;60113;48.762;12.302;2024-02-23T05:52:00;95515.16;;;2.90;100.00
72210;BME280;60113;48.762;12.302;2024-02-23T05:54:26;95523.75;;;2.90;100.00
72210;BME280;60113;48.762;12.302;2024-02-23T05:56:51;95519.50;;;2.89;100.00
72210;BME280;60113;48.762;12.302;2024-02-23T05:59:17;95527.28;;;2.89;100.00
72210;BME280;60113;48.762;12.302;2024-02-23T06:01:42;95532.59;;;2.87;100.00
72210;BME280;60113;48.762;12.302;2024-02-23T06:04:09;95540.59;;;2.84;100.00
72210;BME280;60113;48.762;12.302;2024-02-23T06:06:34;95552.72;;;2.84;100.00
72210;BME280;60113;48.762;12.302;2024-02-23T06:09:00;95552.03;;;2.82;100.00
72210;BME280;60113;48.762;12.302;2024-02-23T06:11:26;95549.53;;;2.80;100.00
72210;BME280;60113;48.762;12.302;2024-02-23T06:13:51;95546.94;;;2.80;100.00
72210;BME280;60113;48.762;12.302;2024-02-23T06:16:17;95555.44;;;2.82;100.00
72210;BME280;60113;48.762;12.302;2024-02-23T06:18:42;95549.53;;;2.80;100.00
72210;BME280;60113;48.762;12.302;2024-02-23T06:21:14;95552.84;;;2.82;100.00
72210;BME280;60113;48.762;12.302;2024-02-23T06:23:42;95564.88;;;2.83;100.00
72210;BME280;60113;48.762;12.302;2024-02-23T06:26:08;95562.88;;;2.87;100.00
72210;BME280;60113;48.762;12.302;2024-02-23T06:28:33;95574.81;;;2.90;100.00
72210;BME280;60113;48.762;12.302;2024-02-23T06:31:05;95583.31;;;2.92;100.00
72210;BME280;60113;48.762;12.302;2024-02-23T06:33:31;95583.31;;;2.92;100.00
72210;BME280;60113;48.762;12.302;2024-02-23T06:35:56;95583.19;;;2.93;100.00
72210;BME280;60113;48.762;12.302;2024-02-23T06:38:22;95576.25;;;2.94;100.00
72210;BME280;60113;48.762;12.302;2024-02-23T06:40:47;95585.69;;;2.95;100.00
72210;BME280;60113;48.762;12.302;2024-02-23T06:43:13;95588.28;;;2.95;100.00
72210;BME280;60113;48.762;12.302;2024-02-23T06:45:38;95587.47;;;2.94;100.00
72210;BME280;60113;48.762;12.302;2024-02-23T06:48:05;95596.06;;;2.95;100.00
72210;BME280;60113;48.762;12.302;2024-02-23T06:50:30;95594.41;;;2.94;100.00
72210;BME280;60113;48.762;12.302;2024-02-23T06:52:55;95593.69;;;2.92;100.00
72210;BME280;60113;48.762;12.302;2024-02-23T06:55:21;95597.22;;;2.91;100.00
72210;BME280;60113;48.762;12.302;2024-02-23T06:57:46;95599.81;;;2.91;100.00
72210;BME280;60113;48.762;12.302;2024-02-23T07:00:13;95600.66;;;2.91;100.00
72210;BME280;60113;48.762;12.302;2024-02-23T07:02:38;95599.81;;;2.91;100.00
72210;BME280;60113;48.762;12.302;2024-02-23T07:05:04;95604.16;;;2.90;100.00
72210;BME280;60113;48.762;12.302;2024-02-23T07:07:31;95603.25;;;2.91;100.00
72210;BME280;60113;48.762;12.302;2024-02-23T07:09:59;95612.69;;;2.92;100.00
72210;BME280;60113;48.762;12.302;2024-02-23T07:12:24;95613.31;;;2.96;100.00
72210;BME280;60113;48.762;12.302;2024-02-23T07:14:52;95608.00;;;2.97;100.00
72210;BME280;60113;48.762;12.302;2024-02-23T07:17:17;95604.34;;;3.00;100.00
72210;BME280;60113;48.762;12.302;2024-02-23T07:19:44;95597.28;;;3.02;100.00
72210;BME280;60113;48.762;12.302;2024-02-23T07:22:09;95603.06;;;3.06;100.00
72210;BME280;60113;48.762;12.302;2024-02-23T07:24:39;95590.72;;;3.09;100.00
72210;BME280;60113;48.762;12.302;2024-02-23T07:27:05;95595.78;;;3.11;100.00
72210;BME280;60113;48.762;12.302;2024-02-23T07:29:31;95590.50;;;3.12;100.00
72210;BME280;60113;48.762;12.302;2024-02-23T07:31:56;95605.94;;;3.14;100.00
72210;BME280;60113;48.762;12.302;2024-02-23T07:34:22;95609.28;;;3.16;100.00
72210;BME280;60113;48.762;12.302;2024-02-23T07:36:47;95616.94;;;3.18;100.00
72210;BME280;60113;48.762;12.302;2024-02-23T07:39:13;95612.47;;;3.20;100.00
72210;BME280;60113;48.762;12.302;2024-02-23T07:41:39;95615.78;;;3.22;100.00
72210;BME280;60113;48.762;12.302;2024-02-23T07:44:04;95613.81;;;3.25;100.00
72210;BME280;60113;48.762;12.302;2024-02-23T07:46:30;95606.81;;;3.26;100.00
72210;BME280;60113;48.762;12.302;2024-02-23T07:48:55;95625.59;;;3.30;100.00
72210;BME280;60113;48.762;12.302;2024-02-23T07:51:20;95615.00;;;3.33;100.00
72210;BME280;60113;48.762;12.302;2024-02-23T07:53:46;95627.75;;;3.36;100.00
72210;BME280;60113;48.762;12.302;2024-02-23T07:56:11;95629.28;;;3.38;100.00
72210;BME280;60113;48.762;12.302;2024-02-23T07:58:38;95631.66;;;3.42;100.00
72210;BME280;60113;48.762;12.302;2024-02-23T08:01:03;95633.19;;;3.44;100.00
72210;BME280;60113;48.762;12.302;2024-02-23T08:03:29;95634.75;;;3.47;100.00
72210;BME280;60113;48.762;12.302;2024-02-23T08:05:55;95643.13;;;3.50;100.00
72210;BME280;60113;48.762;12.302;2024-02-23T08:08:20;95648.09;;;3.54;100.00
72210;BME280;60113;48.762;12.302;2024-02-23T08:10:47;95644.47;;;3.56;100.00
72210;BME280;60113;48.762;12.302;2024-02-23T08:13:13;95636.69;;;3.56;100.00
72210;BME280;60113;48.762;12.302;2024-02-23T08:15:38;95629.59;;;3.58;100.00
72210;BME280;60113;48.762;12.302;2024-02-23T08:18:04;95627.00;;;3.58;100.00
72210;BME280;60113;48.762;12.302;2024-02-23T08:20:29;95622.53;;;3.60;100.00
72210;BME280;60113;48.762;12.302;2024-02-23T08:22:55;95629.38;;;3.61;100.00
72210;BME280;60113;48.762;12.302;2024-02-23T08:25:21;95616.16;;;3.65;100.00
72210;BME280;60113;48.762;12.302;2024-02-23T08:27:46;95619.47;;;3.67;100.00
72210;BME280;60113;48.762;12.302;2024-02-23T08:30:13;95608.84;;;3.70;100.00
72210;BME280;60113;48.762;12.302;2024-02-23T08:32:39;95615.47;;;3.74;100.00
72210;BME280;60113;48.762;12.302;2024-02-23T08:35:05;95615.94;;;3.79;100.00
72210;BME280;60113;48.762;12.302;2024-02-23T08:37:30;95610.06;;;3.88;100.00
72210;BME280;60113;48.762;12.302;2024-02-23T08:39:56;95610.44;;;3.95;100.00
72210;BME280;60113;48.762;12.302;2024-02-23T08:42:21;95596.03;;;4.03;100.00
72210;BME280;60113;48.762;12.302;2024-02-23T08:44:48;95598.28;;;4.07;100.00
72210;BME280;60113;48.762;12.302;2024-02-23T08:47:13;95604.03;;;4.11;100.00
72210;BME280;60113;48.762;12.302;2024-02-23T08:49:38;95609.84;;;4.15;100.00
72210;BME280;60113;48.762;12.302;2024-02-23T08:52:04;95604.41;;;4.18;100.00
72210;BME280;60113;48.762;12.302;2024-02-23T08:54:30;95617.19;;;4.21;100.00
72210;BME280;60113;48.762;12.302;2024-02-23T08:56:55;95611.63;;;4.25;100.00
72210;BME280;60113;48.762;12.302;2024-02-23T08:59:21;95595.78;;;4.29;100.00
72210;BME280;60113;48.762;12.302;2024-02-23T09:01:46;95588.47;;;4.34;100.00
72210;BME280;60113;48.762;12.302;2024-02-23T09:04:13;95588.22;;;4.37;100.00
72210;BME280;60113;48.762;12.302;2024-02-23T09:06:38;95598.41;;;4.40;100.00
72210;BME280;60113;48.762;12.302;2024-02-23T09:09:03;95593.75;;;4.44;100.00
72210;BME280;60113;48.762;12.302;2024-02-23T09:11:29;95597.69;;;4.49;100.00
72210;BME280;60113;48.762;12.302;2024-02-23T09:13:55;95588.56;;;4.55;100.00
72210;BME280;60113;48.762;12.302;2024-02-23T09:16:20;95595.03;;;4.61;100.00
72210;BME280;60113;48.762;12.302;2024-02-23T09:18:48;95604.97;;;4.67;100.00
72210;BME280;60113;48.762;12.302;2024-02-23T09:21:14;95603.78;;;4.71;100.00
72210;BME280;60113;48.762;12.302;2024-02-23T09:23:39;95614.06;;;4.73;100.00
72210;BME280;60113;48.762;12.302;2024-02-23T09:26:11;95632.75;;;4.78;100.00
72210;BME280;60113;48.762;12.302;2024-02-23T09:28:37;95641.41;;;4.79;98.68
72210;BME280;60113;48.762;12.302;2024-02-23T09:31:02;95652.63;;;4.79;99.03
72210;BME280;60113;48.762;12.302;2024-02-23T09:33:28;95655.34;;;4.78;99.30
72210;BME280;60113;48.762;12.302;2024-02-23T09:35:54;95660.66;;;4.76;97.48
72210;BME280;60113;48.762;12.302;2024-02-23T09:38:19;95658.19;;;4.74;97.18
72210;BME280;60113;48.762;12.302;2024-02-23T09:40:45;95656.66;;;4.72;94.33
72210;BME280;60113;48.762;12.302;2024-02-23T09:43:12;95659.97;;;4.74;93.25
72210;BME280;60113;48.762;12.302;2024-02-23T09:45:38;95685.03;;;4.75;93.14
72210;BME280;60113;48.762;12.302;2024-02-23T09:48:04;95681.59;;;4.74;91.19
72210;BME280;60113;48.762;12.302;2024-02-23T09:50:31;95678.31;;;4.72;90.69
72210;BME280;60113;48.762;12.302;2024-02-23T09:52:58;95688.59;;;4.74;92.01
72210;BME280;60113;48.762;12.302;2024-02-23T09:55:24;95683.50;;;4.72;91.27
72210;BME280;60113;48.762;12.302;2024-02-23T09:57:52;95670.50;;;4.72;91.14
72210;BME280;60113;48.762;12.302;2024-02-23T10:00:23;95677.34;;;4.73;92.30
72210;BME280;60113;48.762;12.302;2024-02-23T10:02:48;95683.28;;;4.75;94.43
72210;BME280;60113;48.762;12.302;2024-02-23T10:05:15;95681.38;;;4.78;94.33
72210;BME280;60113;48.762;12.302;2024-02-23T10:07:43;95683.97;;;4.78;95.14
72210;BME280;60113;48.762;12.302;2024-02-23T10:10:09;95690.84;;;4.79;94.11
72210;BME280;60113;48.762;12.302;2024-02-23T10:12:36;95683.97;;;4.78;92.55
72210;BME280;60113;48.762;12.302;2024-02-23T10:15:02;95677.00;;;4.78;94.95
72210;BME280;60113;48.762;12.302;2024-02-23T10:17:32;95685.53;;;4.80;94.46
72210;BME280;60113;48.762;12.302;2024-02-23T10:19:59;95677.59;;;4.82;95.25
72210;BME280;60113;48.762;12.302;2024-02-23T10:22:26;95682.56;;;4.85;94.21
72210;BME280;60113;48.762;12.302;2024-02-23T10:25:03;95681.47;;;4.87;94.00
72210;BME280;60113;48.762;12.302;2024-02-23T10:27:44;95674.50;;;4.88;94.52
72210;BME280;60113;48.762;12.302;2024-02-23T10:30:15;95673.44;;;4.91;95.25
72210;BME280;60113;48.762;12.302;2024-02-23T10:32:43;95669.06;;;4.91;95.67
72210;BME280;60113;48.762;12.302;2024-02-23T10:35:18;95669.75;;;4.93;94.62
72210;BME280;60113;48.762;12.302;2024-02-23T10:41:14;95686.69;;;4.99;93.82
72210;BME280;60113;48.762;12.302;2024-02-23T10:43:48;95681.13;;;5.04;95.24
72210;BME280;60113;48.762;12.302;2024-02-23T10:46:22;95673.88;;;5.07;96.98
72210;BME280;60113;48.762;12.302;2024-02-23T12:35:54;95629.78;;;4.83;90.38
72210;BME280;60113;48.762;12.302;2024-02-23T12:38:19;95635.13;;;4.81;91.79
72210;BME280;60113;48.762;12.302;2024-02-23T12:40:45;95625.19;;;4.75;91.59
72210;BME280;60113;48.762;12.302;2024-02-23T12:43:11;95633.34;;;4.70;92.12
72210;BME280;60113;48.762;12.302;2024-02-23T12:45:36;95638.00;;;4.67;92.84
72210;BME280;60113;48.762;12.302;2024-02-23T12:48:02;95636.56;;;4.62;93.69
72210;BME280;60113;48.762;12.302;2024-02-23T12:50:29;95648.63;;;4.63;93.22
72210;BME280;60113;48.762;12.302;2024-02-23T12:52:55;95646.41;;;4.59;94.27
72210;BME280;60113;48.762;12.302;2024-02-23T12:55:20;95637.75;;;4.58;94.06
72210;BME280;60113;48.762;12.302;2024-02-23T12:57:45;95635.03;;;4.60;94.31
72210;BME280;60113;48.762;12.302;2024-02-23T13:00:11;95636.00;;;4.59;93.88
72210;BME280;60113;48.762;12.302;2024-02-23T13:02:37;95628.88;;;4.61;92.91
72210;BME280;60113;48.762;12.302;2024-02-23T13:05:03;95618.59;;;4.59;91.81
72210;BME280;60113;48.762;12.302;2024-02-23T13:07:28;95623.66;;;4.61;92.23
72210;BME280;60113;48.762;12.302;2024-02-23T13:09:54;95611.50;;;4.61;92.57
72210;BME280;60113;48.762;12.302;2024-02-23T13:12:19;95611.38;;;4.63;92.44
72210;BME280;60113;48.762;12.302;2024-02-23T13:14:45;95614.69;;;4.65;92.20
72210;BME280;60113;48.762;12.302;2024-02-23T13:17:10;95614.56;;;4.67;93.09
72210;BME280;60113;48.762;12.302;2024-02-23T13:19:36;95613.50;;;4.69;92.26
72210;BME280;60113;48.762;12.302;2024-02-23T13:22:02;95611.69;;;4.70;89.79
72210;BME280;60113;48.762;12.302;2024-02-23T13:24:28;95611.59;;;4.71;90.43
72210;BME280;60113;48.762;12.302;2024-02-23T13:26:54;95613.13;;;4.74;90.25
72210;BME280;60113;48.762;12.302;2024-02-23T13:29:20;95620.69;;;4.77;88.12
72210;BME280;60113;48.762;12.302;2024-02-23T13:31:46;95610.72;;;4.82;87.95
72210;BME280;60113;48.762;12.302;2024-02-23T13:34:11;95608.59;;;4.87;88.46
72210;BME280;60113;48.762;12.302;2024-02-23T13:36:37;95590.13;;;4.91;88.25
72210;BME280;60113;48.762;12.302;2024-02-23T13:39:04;95589.19;;;4.92;86.93
72210;BME280;60113;48.762;12.302;2024-02-23T13:41:29;95587.66;;;4.89;88.67
72210;BME280;60113;48.762;12.302;2024-02-23T13:43:55;95584.94;;;4.91;88.68
72210;BME280;60113;48.762;12.302;2024-02-23T13:46:20;95589.31;;;4.90;87.85
72210;BME280;60113;48.762;12.302;2024-02-23T13:48:49;95613.56;;;4.91;88.54
72210;BME280;60113;48.762;12.302;2024-02-23T13:51:26;95627.53;;;4.90;89.29
72210;BME280;60113;48.762;12.302;2024-02-23T13:53:52;95630.25;;;4.88;88.21
72210;BME280;60113;48.762;12.302;2024-02-23T13:56:18;95634.03;;;4.84;86.96
72210;BME280;60113;48.762;12.302;2024-02-23T13:58:44;95629.91;;;4.81;87.11
72210;BME280;60113;48.762;12.302;2024-02-23T14:01:09;95619.75;;;4.78;87.54
72210;BME280;60113;48.762;12.302;2024-02-23T14:03:35;95628.63;;;4.75;87.67
72210;BME280;60113;48.762;12.302;2024-02-23T14:06:00;95625.31;;;4.73;88.49
72210;BME280;60113;48.762;12.302;2024-02-23T14:08:26;95619.28;;;4.73;88.28
72210;BME280;60113;48.762;12.302;2024-02-23T14:10:52;95624.59;;;4.71;89.19
72210;BME280;60113;48.762;12.302;2024-02-23T14:13:17;95622.00;;;4.71;88.85
72210;BME280;60113;48.762;12.302;2024-02-23T14:15:45;95614.44;;;4.68;87.65
72210;BME280;60113;48.762;12.302;2024-02-23T14:18:10;95596.38;;;4.67;87.74
72210;BME280;60113;48.762;12.302;2024-02-23T14:20:36;95585.81;;;4.68;88.28
72210;BME280;60113;48.762;12.302;2024-02-23T14:23:01;95595.41;;;4.68;87.99
72210;BME280;60113;48.762;12.302;2024-02-23T14:25:27;95588.56;;;4.67;88.25
72210;BME280;60113;48.762;12.302;2024-02-23T14:27:53;95577.31;;;4.66;88.27
72210;BME280;60113;48.762;12.302;2024-02-23T14:30:20;95559.94;;;4.67;89.93
72210;BME280;60113;48.762;12.302;2024-02-23T14:32:47;95539.94;;;4.67;90.92
72210;BME280;60113;48.762;12.302;2024-02-23T14:35:12;95541.84;;;4.65;90.41
72210;BME280;60113;48.762;12.302;2024-02-23T14:37:38;95538.41;;;4.65;90.52